sensor_id;sensor_type;location;lat;lon;timestamp;pressure;altitude;pressure_sealevel;temperature;humidity
55187;BME280;55457;52.002;5.464;2022-07-29T00:02:01;101583.59;;;24.48;43.09
55187;BME280;55457;52.002;5.464;2022-07-29T00:04:26;101578.41;;;24.46;43.07
55187;BME280;55457;52.002;5.464;2022-07-29T00:06:51;101573.78;;;24.47;43.09
55187;BME280;55457;52.002;5.464;2022-07-29T00:09:17;101577.31;;;24.47;43.16
55187;BME280;55457;52.002;5.464;2022-07-29T00:11:42;101563.97;;;24.46;42.90
55187;BME280;55457;52.002;5.464;2022-07-29T00:14:08;101561.78;;;24.48;42.91
55187;BME280;55457;52.002;5.464;2022-07-29T00:16:34;101563.69;;;24.47;43.01
55187;BME280;55457;52.002;5.464;2022-07-29T00:18:59;101549.25;;;24.47;43.01
55187;BME280;55457;52.002;5.464;2022-07-29T00:21:25;101557.44;;;24.47;43.00
55187;BME280;55457;52.002;5.464;2022-07-29T00:23:50;101553.63;;;24.48;43.03
55187;BME280;55457;52.002;5.464;2022-07-29T00:26:16;101557.44;;;24.47;43.18
55187;BME280;55457;52.002;5.464;2022-07-29T00:28:41;101551.97;;;24.47;43.20
55187;BME280;55457;52.002;5.464;2022-07-29T00:31:07;101547.63;;;24.46;43.31
55187;BME280;55457;52.002;5.464;2022-07-29T00:33:33;101545.72;;;24.46;43.21
55187;BME280;55457;52.002;5.464;2022-07-29T00:35:58;101540.25;;;24.46;43.22
55187;BME280;55457;52.002;5.464;2022-07-29T00:38:23;101549.25;;;24.47;43.01
55187;BME280;55457;52.002;5.464;2022-07-29T00:40:49;101541.09;;;24.47;43.24
55187;BME280;55457;52.002;5.464;2022-07-29T00:43:14;101535.91;;;24.45;43.04
55187;BME280;55457;52.002;5.464;2022-07-29T00:45:41;101545.72;;;24.46;43.30
55187;BME280;55457;52.002;5.464;2022-07-29T00:48:07;101533.16;;;24.45;43.23
55187;BME280;55457;52.002;5.464;2022-07-29T00:50:34;101533.16;;;24.45;43.20
55187;BME280;55457;52.002;5.464;2022-07-29T00:53:01;101523.09;;;24.46;43.17
55187;BME280;55457;52.002;5.464;2022-07-29T00:55:27;101523.91;;;24.46;43.27
55187;BME280;55457;52.002;5.464;2022-07-29T00:57:54;101534.81;;;24.46;43.41
55187;BME280;55457;52.002;5.464;2022-07-29T01:00:22;101521.47;;;24.45;43.34
55187;BME280;55457;52.002;5.464;2022-07-29T01:02:48;101516.81;;;24.45;43.10
55187;BME280;55457;52.002;5.464;2022-07-29T01:05:16;101517.31;;;24.42;43.20
55187;BME280;55457;52.002;5.464;2022-07-29T01:07:42;101513.28;;;24.45;43.32
55187;BME280;55457;52.002;5.464;2022-07-29T01:10:09;101513.28;;;24.45;43.35
55187;BME280;55457;52.002;5.464;2022-07-29T01:12:36;101521.47;;;24.45;43.12
55187;BME280;55457;52.002;5.464;2022-07-29T01:15:04;101524.19;;;24.45;43.39
55187;BME280;55457;52.002;5.464;2022-07-29T01:17:36;101521.47;;;24.45;43.24
55187;BME280;55457;52.002;5.464;2022-07-29T01:20:24;101518.72;;;24.45;43.14
55187;BME280;55457;52.002;5.464;2022-07-29T01:22:58;101519.81;;;24.44;43.29
55187;BME280;55457;52.002;5.464;2022-07-29T01:25:53;101521.47;;;24.45;43.21
55187;BME280;55457;52.002;5.464;2022-07-29T01:31:25;101514.38;;;24.44;43.37
55187;BME280;55457;52.002;5.464;2022-07-29T01:33:58;101520.63;;;24.44;43.38
55187;BME280;55457;52.002;5.464;2022-07-29T01:36:36;101525.25;;;24.44;43.37
55187;BME280;55457;52.002;5.464;2022-07-29T01:39:32;101521.72;;;24.43;43.31
55187;BME280;55457;52.002;5.464;2022-07-29T01:42:05;101519.00;;;24.43;43.23
55187;BME280;55457;52.002;5.464;2022-07-29T01:44:36;101520.88;;;24.43;43.23
55187;BME280;55457;52.002;5.464;2022-07-29T01:47:12;101518.16;;;24.43;43.65
55187;BME280;55457;52.002;5.464;2022-07-29T01:49:42;101523.59;;;24.43;43.33
55187;BME280;55457;52.002;5.464;2022-07-29T01:52:26;101523.59;;;24.43;43.57
55187;BME280;55457;52.002;5.464;2022-07-29T01:54:55;101530.13;;;24.42;43.44
55187;BME280;55457;52.002;5.464;2022-07-29T01:57:27;101527.41;;;24.42;43.72
55187;BME280;55457;52.002;5.464;2022-07-29T01:59:54;101525.75;;;24.41;43.67
55187;BME280;55457;52.002;5.464;2022-07-29T02:02:21;101525.75;;;24.41;43.39
55187;BME280;55457;52.002;5.464;2022-07-29T02:04:48;101527.41;;;24.42;43.60
55187;BME280;55457;52.002;5.464;2022-07-29T02:07:18;101519.22;;;24.42;43.62
55187;BME280;55457;52.002;5.464;2022-07-29T02:09:45;101514.88;;;24.41;43.61
55187;BME280;55457;52.002;5.464;2022-07-29T02:12:14;101514.88;;;24.41;43.67
55187;BME280;55457;52.002;5.464;2022-07-29T02:14:45;101512.97;;;24.41;43.65
55187;BME280;55457;52.002;5.464;2022-07-29T02:17:13;101515.69;;;24.41;43.44
55187;BME280;55457;52.002;5.464;2022-07-29T02:19:39;101521.13;;;24.41;43.54
55187;BME280;55457;52.002;5.464;2022-07-29T02:22:06;101520.31;;;24.41;43.58
55187;BME280;55457;52.002;5.464;2022-07-29T02:24:35;101517.59;;;24.41;43.66
55187;BME280;55457;52.002;5.464;2022-07-29T02:27:03;101517.59;;;24.41;43.83
55187;BME280;55457;52.002;5.464;2022-07-29T02:29:30;101514.03;;;24.40;43.77
55187;BME280;55457;52.002;5.464;2022-07-29T02:31:57;101510.50;;;24.40;43.47
55187;BME280;55457;52.002;5.464;2022-07-29T02:34:24;101512.41;;;24.39;43.68
55187;BME280;55457;52.002;5.464;2022-07-29T02:36:51;101510.50;;;24.40;43.70
55187;BME280;55457;52.002;5.464;2022-07-29T02:39:18;101514.31;;;24.39;43.75
55187;BME280;55457;52.002;5.464;2022-07-29T02:41:48;101506.13;;;24.39;43.55
55187;BME280;55457;52.002;5.464;2022-07-29T02:44:16;101509.41;;;24.41;43.83
55187;BME280;55457;52.002;5.464;2022-07-29T02:46:46;101503.16;;;24.40;43.57
55187;BME280;55457;52.002;5.464;2022-07-29T02:49:17;101504.22;;;24.39;43.68
55187;BME280;55457;52.002;5.464;2022-07-29T02:51:56;101501.50;;;24.39;43.65
55187;BME280;55457;52.002;5.464;2022-07-29T02:54:28;101500.69;;;24.39;43.52
55187;BME280;55457;52.002;5.464;2022-07-29T02:56:59;101502.59;;;24.38;43.79
55187;BME280;55457;52.002;5.464;2022-07-29T02:59:27;101504.47;;;24.38;43.80
55187;BME280;55457;52.002;5.464;2022-07-29T03:01:55;101505.31;;;24.38;43.58
55187;BME280;55457;52.002;5.464;2022-07-29T03:04:24;101501.72;;;24.38;43.75
55187;BME280;55457;52.002;5.464;2022-07-29T03:06:52;101506.13;;;24.39;43.72
55187;BME280;55457;52.002;5.464;2022-07-29T03:09:18;101504.22;;;24.39;43.70
55187;BME280;55457;52.002;5.464;2022-07-29T03:11:44;101507.19;;;24.38;43.73
55187;BME280;55457;52.002;5.464;2022-07-29T03:14:10;101506.13;;;24.39;43.79
55187;BME280;55457;52.002;5.464;2022-07-29T03:16:36;101507.19;;;24.38;43.69
55187;BME280;55457;52.002;5.464;2022-07-29T03:19:03;101493.56;;;24.38;43.87
55187;BME280;55457;52.002;5.464;2022-07-29T03:21:29;101493.56;;;24.38;43.79
55187;BME280;55457;52.002;5.464;2022-07-29T03:23:55;101488.13;;;24.38;43.77
55187;BME280;55457;52.002;5.464;2022-07-29T03:26:20;101488.13;;;24.38;43.68
55187;BME280;55457;52.002;5.464;2022-07-29T03:28:46;101481.03;;;24.37;43.73
55187;BME280;55457;52.002;5.464;2022-07-29T03:31:11;101477.22;;;24.38;43.77
55187;BME280;55457;52.002;5.464;2022-07-29T03:33:37;101474.75;;;24.36;43.65
55187;BME280;55457;52.002;5.464;2022-07-29T03:36:02;101475.56;;;24.37;43.92
55187;BME280;55457;52.002;5.464;2022-07-29T03:38:29;101473.69;;;24.37;43.52
55187;BME280;55457;52.002;5.464;2022-07-29T03:41:00;101476.41;;;24.37;43.86
55187;BME280;55457;52.002;5.464;2022-07-29T03:43:30;101470.13;;;24.37;43.65
55187;BME280;55457;52.002;5.464;2022-07-29T03:45:59;101479.13;;;24.37;43.92
55187;BME280;55457;52.002;5.464;2022-07-29T03:48:26;101468.50;;;24.36;43.79
55187;BME280;55457;52.002;5.464;2022-07-29T03:50:54;101479.38;;;24.36;43.69
55187;BME280;55457;52.002;5.464;2022-07-29T03:53:20;101475.56;;;24.37;43.76
55187;BME280;55457;52.002;5.464;2022-07-29T03:55:53;101479.38;;;24.36;43.68
55187;BME280;55457;52.002;5.464;2022-07-29T03:58:20;101464.09;;;24.35;43.69
55187;BME280;55457;52.002;5.464;2022-07-29T04:00:46;101468.72;;;24.34;43.71
55187;BME280;55457;52.002;5.464;2022-07-29T04:03:12;101470.41;;;24.35;43.74
55187;BME280;55457;52.002;5.464;2022-07-29T04:05:38;101469.31;;;24.36;43.56
55187;BME280;55457;52.002;5.464;2022-07-29T04:08:04;101473.13;;;24.35;43.87
55187;BME280;55457;52.002;5.464;2022-07-29T04:10:29;101473.94;;;24.36;43.99
55187;BME280;55457;52.002;5.464;2022-07-29T04:12:55;101463.03;;;24.36;43.56
55187;BME280;55457;52.002;5.464;2022-07-29T04:15:20;101468.50;;;24.36;43.67
55187;BME280;55457;52.002;5.464;2022-07-29T04:17:45;101460.56;;;24.34;43.69
55187;BME280;55457;52.002;5.464;2022-07-29T04:20:11;101463.28;;;24.34;43.82
55187;BME280;55457;52.002;5.464;2022-07-29T04:22:39;101469.53;;;24.35;43.87
55187;BME280;55457;52.002;5.464;2022-07-29T04:25:05;101461.38;;;24.35;43.74
55187;BME280;55457;52.002;5.464;2022-07-29T04:27:31;101460.56;;;24.34;43.80
55187;BME280;55457;52.002;5.464;2022-07-29T04:29:56;101459.72;;;24.34;43.94
55187;BME280;55457;52.002;5.464;2022-07-29T04:32:21;101463.28;;;24.34;43.70
55187;BME280;55457;52.002;5.464;2022-07-29T04:34:47;101470.63;;;24.34;43.62
55187;BME280;55457;52.002;5.464;2022-07-29T04:37:13;101469.53;;;24.35;43.70
55187;BME280;55457;52.002;5.464;2022-07-29T04:39:38;101466.81;;;24.35;43.95
55187;BME280;55457;52.002;5.464;2022-07-29T04:42:03;101475.00;;;24.35;43.86
55187;BME280;55457;52.002;5.464;2022-07-29T04:44:29;101471.44;;;24.34;43.70
55187;BME280;55457;52.002;5.464;2022-07-29T04:46:54;101481.53;;;24.34;44.14
55187;BME280;55457;52.002;5.464;2022-07-29T04:49:20;101481.53;;;24.34;43.63
55187;BME280;55457;52.002;5.464;2022-07-29T04:51:45;101475.25;;;24.33;44.00
55187;BME280;55457;52.002;5.464;2022-07-29T04:54:11;101474.44;;;24.33;43.64
55187;BME280;55457;52.002;5.464;2022-07-29T04:56:36;101479.88;;;24.33;43.86
55187;BME280;55457;52.002;5.464;2022-07-29T04:59:01;101479.63;;;24.34;43.64
55187;BME280;55457;52.002;5.464;2022-07-29T05:01:27;101483.16;;;24.35;43.84
55187;BME280;55457;52.002;5.464;2022-07-29T05:03:52;101481.53;;;24.34;43.64
55187;BME280;55457;52.002;5.464;2022-07-29T05:06:17;101476.91;;;24.34;44.01
55187;BME280;55457;52.002;5.464;2022-07-29T05:08:43;101480.69;;;24.33;44.00
55187;BME280;55457;52.002;5.464;2022-07-29T05:11:08;101475.25;;;24.33;43.68
55187;BME280;55457;52.002;5.464;2022-07-29T05:13:33;101481.53;;;24.34;43.64
55187;BME280;55457;52.002;5.464;2022-07-29T05:15:59;101478.81;;;24.34;43.74
55187;BME280;55457;52.002;5.464;2022-07-29T05:18:25;101467.91;;;24.34;44.00
55187;BME280;55457;52.002;5.464;2022-07-29T05:20:50;101483.16;;;24.35;43.96
55187;BME280;55457;52.002;5.464;2022-07-29T05:23:16;101488.06;;;24.33;43.89
55187;BME280;55457;52.002;5.464;2022-07-29T05:25:41;101493.25;;;24.34;43.87
55187;BME280;55457;52.002;5.464;2022-07-29T05:28:07;101488.88;;;24.33;43.97
55187;BME280;55457;52.002;5.464;2022-07-29T05:30:32;101491.59;;;24.33;43.93
55187;BME280;55457;52.002;5.464;2022-07-29T05:32:57;101493.50;;;24.33;43.89
55187;BME280;55457;52.002;5.464;2022-07-29T05:35:23;101506.03;;;24.34;43.83
55187;BME280;55457;52.002;5.464;2022-07-29T05:37:48;101516.94;;;24.34;43.96
55187;BME280;55457;52.002;5.464;2022-07-29T05:40:13;101496.22;;;24.33;43.96
55187;BME280;55457;52.002;5.464;2022-07-29T05:42:39;101505.22;;;24.33;43.94
55187;BME280;55457;52.002;5.464;2022-07-29T05:45:04;101496.22;;;24.33;44.00
55187;BME280;55457;52.002;5.464;2022-07-29T05:47:30;101499.78;;;24.33;43.95
55187;BME280;55457;52.002;5.464;2022-07-29T05:49:55;101498.94;;;24.33;43.97
55187;BME280;55457;52.002;5.464;2022-07-29T05:52:21;101496.22;;;24.33;44.08
55187;BME280;55457;52.002;5.464;2022-07-29T05:54:47;101500.81;;;24.32;43.85
55187;BME280;55457;52.002;5.464;2022-07-29T05:57:22;101496.22;;;24.33;44.01
55187;BME280;55457;52.002;5.464;2022-07-29T05:59:49;101501.69;;;24.33;44.06
55187;BME280;55457;52.002;5.464;2022-07-29T06:02:15;101503.56;;;24.32;44.05
55187;BME280;55457;52.002;5.464;2022-07-29T06:04:41;101504.41;;;24.33;44.06
55187;BME280;55457;52.002;5.464;2022-07-29T06:07:07;101502.50;;;24.33;44.01
55187;BME280;55457;52.002;5.464;2022-07-29T06:09:33;101506.03;;;24.34;44.00
55187;BME280;55457;52.002;5.464;2022-07-29T06:11:59;101512.56;;;24.33;44.08
55187;BME280;55457;52.002;5.464;2022-07-29T06:14:25;101514.22;;;24.34;43.95
55187;BME280;55457;52.002;5.464;2022-07-29T06:16:51;101519.66;;;24.34;44.08
55187;BME280;55457;52.002;5.464;2022-07-29T06:19:18;101518.56;;;24.35;44.38
55187;BME280;55457;52.002;5.464;2022-07-29T06:21:44;101524.63;;;24.37;45.90
55187;BME280;55457;52.002;5.464;2022-07-29T06:24:13;101525.44;;;24.37;47.03
55187;BME280;55457;52.002;5.464;2022-07-29T06:26:40;101533.38;;;24.39;46.83
55187;BME280;55457;52.002;5.464;2022-07-29T06:29:09;101535.00;;;24.40;46.42
55187;BME280;55457;52.002;5.464;2022-07-29T06:31:36;101532.03;;;24.41;46.33
55187;BME280;55457;52.002;5.464;2022-07-29T06:34:01;101527.41;;;24.42;46.57
55187;BME280;55457;52.002;5.464;2022-07-29T06:36:26;101533.66;;;24.42;46.40
55187;BME280;55457;52.002;5.464;2022-07-29T06:38:52;101525.50;;;24.42;46.47
55187;BME280;55457;52.002;5.464;2022-07-29T06:41:18;101538.28;;;24.42;46.36
55187;BME280;55457;52.002;5.464;2022-07-29T06:43:44;101548.38;;;24.41;46.17
55187;BME280;55457;52.002;5.464;2022-07-29T06:46:11;101552.19;;;24.40;46.16
55187;BME280;55457;52.002;5.464;2022-07-29T06:48:38;101548.38;;;24.41;46.44
55187;BME280;55457;52.002;5.464;2022-07-29T06:51:05;101542.09;;;24.41;46.22
55187;BME280;55457;52.002;5.464;2022-07-29T06:53:31;101543.75;;;24.42;46.36
55187;BME280;55457;52.002;5.464;2022-07-29T06:55:57;101545.38;;;24.43;46.45
55187;BME280;55457;52.002;5.464;2022-07-29T06:58:26;101548.13;;;24.43;46.66
55187;BME280;55457;52.002;5.464;2022-07-29T07:00:52;101552.50;;;24.44;46.58
55187;BME280;55457;52.002;5.464;2022-07-29T07:03:18;101553.34;;;24.44;46.71
55187;BME280;55457;52.002;5.464;2022-07-29T07:05:45;101548.69;;;24.45;46.47
55187;BME280;55457;52.002;5.464;2022-07-29T07:08:12;101540.25;;;24.46;46.61
55187;BME280;55457;52.002;5.464;2022-07-29T07:10:38;101550.91;;;24.48;46.30
55187;BME280;55457;52.002;5.464;2022-07-29T07:13:04;101555.28;;;24.49;46.29
55187;BME280;55457;52.002;5.464;2022-07-29T07:15:30;101549.03;;;24.49;46.25
55187;BME280;55457;52.002;5.464;2022-07-29T07:17:56;101549.84;;;24.49;46.26
55187;BME280;55457;52.002;5.464;2022-07-29T07:20:23;101547.69;;;24.51;46.23
55187;BME280;55457;52.002;5.464;2022-07-29T07:22:49;101542.22;;;24.51;46.25
55187;BME280;55457;52.002;5.464;2022-07-29T07:25:14;101543.31;;;24.50;46.11
55187;BME280;55457;52.002;5.464;2022-07-29T07:27:39;101535.13;;;24.50;46.38
55187;BME280;55457;52.002;5.464;2022-07-29T07:30:06;101538.94;;;24.49;46.09
55187;BME280;55457;52.002;5.464;2022-07-29T07:32:33;101535.97;;;24.51;46.35
55187;BME280;55457;52.002;5.464;2022-07-29T07:34:58;101535.13;;;24.50;46.42
55187;BME280;55457;52.002;5.464;2022-07-29T07:37:24;101537.59;;;24.52;46.38
55187;BME280;55457;52.002;5.464;2022-07-29T07:39:50;101532.41;;;24.50;46.13
55187;BME280;55457;52.002;5.464;2022-07-29T07:42:16;101536.78;;;24.51;46.37
55187;BME280;55457;52.002;5.464;2022-07-29T07:44:42;101535.13;;;24.50;45.99
55187;BME280;55457;52.002;5.464;2022-07-29T07:47:07;101532.41;;;24.50;46.08
55187;BME280;55457;52.002;5.464;2022-07-29T07:49:32;101531.81;;;24.48;45.96
55187;BME280;55457;52.002;5.464;2022-07-29T07:51:57;101538.94;;;24.49;46.05
55187;BME280;55457;52.002;5.464;2022-07-29T07:54:23;101528.53;;;24.46;46.07
55187;BME280;55457;52.002;5.464;2022-07-29T07:56:48;101532.69;;;24.49;45.96
55187;BME280;55457;52.002;5.464;2022-07-29T07:59:15;101531.00;;;24.47;45.87
55187;BME280;55457;52.002;5.464;2022-07-29T08:01:40;101513.84;;;24.47;45.88
55187;BME280;55457;52.002;5.464;2022-07-29T08:04:06;101516.56;;;24.47;46.07
55187;BME280;55457;52.002;5.464;2022-07-29T08:06:32;101513.84;;;24.47;46.07
55187;BME280;55457;52.002;5.464;2022-07-29T08:09:00;101515.47;;;24.48;45.81
55187;BME280;55457;52.002;5.464;2022-07-29T08:11:25;101521.78;;;24.49;45.80
55187;BME280;55457;52.002;5.464;2022-07-29T08:13:50;101519.88;;;24.49;45.83
55187;BME280;55457;52.002;5.464;2022-07-29T08:16:15;101523.66;;;24.48;45.72
55187;BME280;55457;52.002;5.464;2022-07-29T08:18:43;101525.31;;;24.49;45.89
55187;BME280;55457;52.002;5.464;2022-07-29T08:21:09;101530.78;;;24.49;45.73
55187;BME280;55457;52.002;5.464;2022-07-29T08:23:35;101525.56;;;24.47;45.84
55187;BME280;55457;52.002;5.464;2022-07-29T08:26:07;101531.81;;;24.48;45.65
55187;BME280;55457;52.002;5.464;2022-07-29T08:28:37;101523.66;;;24.48;45.48
55187;BME280;55457;52.002;5.464;2022-07-29T08:31:02;101524.72;;;24.47;45.50
55187;BME280;55457;52.002;5.464;2022-07-29T08:33:27;101528.88;;;24.50;45.42
55187;BME280;55457;52.002;5.464;2022-07-29T08:35:52;101534.63;;;24.53;45.57
55187;BME280;55457;52.002;5.464;2022-07-29T08:38:18;101526.19;;;24.55;45.53
55187;BME280;55457;52.002;5.464;2022-07-29T08:40:44;101528.66;;;24.56;45.61
55187;BME280;55457;52.002;5.464;2022-07-29T08:43:10;101533.03;;;24.57;45.62
55187;BME280;55457;52.002;5.464;2022-07-29T08:45:45;101546.66;;;24.57;45.47
55187;BME280;55457;52.002;5.464;2022-07-29T08:48:16;101539.56;;;24.56;45.07
55187;BME280;55457;52.002;5.464;2022-07-29T08:50:43;101535.19;;;24.55;45.14
55187;BME280;55457;52.002;5.464;2022-07-29T08:53:13;101538.47;;;24.57;44.67
55187;BME280;55457;52.002;5.464;2022-07-29T08:55:44;101540.06;;;24.53;44.64
55187;BME280;55457;52.002;5.464;2022-07-29T08:58:10;101543.06;;;24.52;44.75
55187;BME280;55457;52.002;5.464;2022-07-29T09:00:37;101535.13;;;24.50;44.80
55187;BME280;55457;52.002;5.464;2022-07-29T09:03:06;101532.97;;;24.52;44.84
55187;BME280;55457;52.002;5.464;2022-07-29T09:05:33;101530.78;;;24.49;45.16
55187;BME280;55457;52.002;5.464;2022-07-29T09:07:59;101543.31;;;24.50;45.04
55187;BME280;55457;52.002;5.464;2022-07-29T09:10:24;101536.78;;;24.51;45.26
55187;BME280;55457;52.002;5.464;2022-07-29T09:12:50;101535.97;;;24.51;45.19
55187;BME280;55457;52.002;5.464;2022-07-29T09:15:17;101531.34;;;24.51;44.92
55187;BME280;55457;52.002;5.464;2022-07-29T09:17:45;101533.50;;;24.49;44.86
55187;BME280;55457;52.002;5.464;2022-07-29T09:20:16;101528.88;;;24.50;44.75
55187;BME280;55457;52.002;5.464;2022-07-29T09:22:41;101527.53;;;24.52;44.60
55187;BME280;55457;52.002;5.464;2022-07-29T09:25:07;101518.78;;;24.50;44.39
55187;BME280;55457;52.002;5.464;2022-07-29T09:27:33;101523.97;;;24.52;44.30
55187;BME280;55457;52.002;5.464;2022-07-29T09:30:10;101514.16;;;24.51;44.10
55187;BME280;55457;52.002;5.464;2022-07-29T09:32:55;101519.34;;;24.52;44.13
55187;BME280;55457;52.002;5.464;2022-07-29T09:35:22;101516.63;;;24.52;44.12
55187;BME280;55457;52.002;5.464;2022-07-29T09:37:49;101518.25;;;24.53;43.50
55187;BME280;55457;52.002;5.464;2022-07-29T09:40:23;101517.72;;;24.51;43.87
55187;BME280;55457;52.002;5.464;2022-07-29T09:42:50;101517.97;;;24.50;43.95
55187;BME280;55457;52.002;5.464;2022-07-29T09:45:36;101521.50;;;24.50;43.70
55187;BME280;55457;52.002;5.464;2022-07-29T09:48:16;101521.50;;;24.50;44.48
55187;BME280;55457;52.002;5.464;2022-07-29T09:50:43;101532.97;;;24.52;44.77
55187;BME280;55457;52.002;5.464;2022-07-29T09:53:10;101516.63;;;24.52;44.84
55187;BME280;55457;52.002;5.464;2022-07-29T09:55:46;101521.00;;;24.53;44.49
55187;BME280;55457;52.002;5.464;2022-07-29T09:58:19;101521.00;;;24.53;44.84
55187;BME280;55457;52.002;5.464;2022-07-29T10:00:46;101515.53;;;24.53;45.01
55187;BME280;55457;52.002;5.464;2022-07-29T10:03:12;101529.75;;;24.55;44.63
55187;BME280;55457;52.002;5.464;2022-07-29T10:05:38;101524.31;;;24.55;44.02
55187;BME280;55457;52.002;5.464;2022-07-29T10:08:04;101515.31;;;24.55;44.70
55187;BME280;55457;52.002;5.464;2022-07-29T10:10:35;101520.75;;;24.55;44.75
55187;BME280;55457;52.002;5.464;2022-07-29T10:13:04;101518.84;;;24.55;44.54
55187;BME280;55457;52.002;5.464;2022-07-29T10:15:32;101517.75;;;24.56;44.34
55187;BME280;55457;52.002;5.464;2022-07-29T10:17:58;101512.06;;;24.58;44.50
55187;BME280;55457;52.002;5.464;2022-07-29T10:20:25;101518.59;;;24.57;44.30
55187;BME280;55457;52.002;5.464;2022-07-29T10:22:51;101516.69;;;24.57;44.41
55187;BME280;55457;52.002;5.464;2022-07-29T10:25:18;101513.97;;;24.57;44.61
55187;BME280;55457;52.002;5.464;2022-07-29T10:27:45;101513.97;;;24.57;44.46
55187;BME280;55457;52.002;5.464;2022-07-29T10:30:12;101515.59;;;24.58;44.45
55187;BME280;55457;52.002;5.464;2022-07-29T10:38:34;101513.47;;;24.60;44.02
55187;BME280;55457;52.002;5.464;2022-07-29T10:41:29;101508.81;;;24.61;43.56
55187;BME280;55457;52.002;5.464;2022-07-29T10:44:02;101508.00;;;24.60;44.03
55187;BME280;55457;52.002;5.464;2022-07-29T10:46:34;101510.72;;;24.60;44.15
55187;BME280;55457;52.002;5.464;2022-07-29T10:54:45;101508.50;;;24.57;44.31
55187;BME280;55457;52.002;5.464;2022-07-29T10:59:38;101520.00;;;24.59;44.29
55187;BME280;55457;52.002;5.464;2022-07-29T11:07:23;101512.06;;;24.58;44.10
55187;BME280;55457;52.002;5.464;2022-07-29T11:15:12;101509.66;;;24.61;44.06
55187;BME280;55457;52.002;5.464;2022-07-29T11:29:20;101504.53;;;24.65;44.03
55187;BME280;55457;52.002;5.464;2022-07-29T11:31:50;101503.69;;;24.64;44.10
55187;BME280;55457;52.002;5.464;2022-07-29T11:34:32;101503.69;;;24.64;43.74
55187;BME280;55457;52.002;5.464;2022-07-29T11:39:38;101497.16;;;24.65;43.86
55187;BME280;55457;52.002;5.464;2022-07-29T11:45:04;101503.97;;;24.68;43.65
55187;BME280;55457;52.002;5.464;2022-07-29T11:47:31;101501.03;;;24.69;43.95
55187;BME280;55457;52.002;5.464;2022-07-29T11:49:59;101497.50;;;24.74;43.87
55187;BME280;55457;52.002;5.464;2022-07-29T11:52:36;101500.81;;;24.76;43.72
55187;BME280;55457;52.002;5.464;2022-07-29T11:55:10;101499.16;;;24.75;43.73
55187;BME280;55457;52.002;5.464;2022-07-29T11:57:44;101496.69;;;24.73;43.76
55187;BME280;55457;52.002;5.464;2022-07-29T12:00:10;101505.44;;;24.76;43.72
55187;BME280;55457;52.002;5.464;2022-07-29T12:02:43;101501.06;;;24.75;43.56
55187;BME280;55457;52.002;5.464;2022-07-29T12:05:09;101503.81;;;24.75;43.68
55187;BME280;55457;52.002;5.464;2022-07-29T12:07:38;101505.44;;;24.76;43.83
55187;BME280;55457;52.002;5.464;2022-07-29T12:10:05;101498.34;;;24.75;43.75
55187;BME280;55457;52.002;5.464;2022-07-29T12:12:31;101498.34;;;24.75;43.94
55187;BME280;55457;52.002;5.464;2022-07-29T12:14:56;101500.50;;;24.72;44.02
55187;BME280;55457;52.002;5.464;2022-07-29T12:17:32;101510.31;;;24.73;43.87
55187;BME280;55457;52.002;5.464;2022-07-29T12:20:03;101506.53;;;24.75;43.97
55187;BME280;55457;52.002;5.464;2022-07-29T12:22:38;101505.94;;;24.72;44.05
55187;BME280;55457;52.002;5.464;2022-07-29T12:25:08;101500.81;;;24.76;43.81
55187;BME280;55457;52.002;5.464;2022-07-29T12:27:35;101507.41;;;24.80;43.89
55187;BME280;55457;52.002;5.464;2022-07-29T12:30:12;101516.13;;;24.82;43.96
55187;BME280;55457;52.002;5.464;2022-07-29T12:35:14;101506.06;;;24.83;43.99
55187;BME280;55457;52.002;5.464;2022-07-29T12:37:42;101506.06;;;24.83;44.03
55187;BME280;55457;52.002;5.464;2022-07-29T12:40:09;101508.78;;;24.83;44.27
55187;BME280;55457;52.002;5.464;2022-07-29T12:42:36;101507.69;;;24.84;44.10
55187;BME280;55457;52.002;5.464;2022-07-29T12:45:03;101509.31;;;24.85;44.14
55187;BME280;55457;52.002;5.464;2022-07-29T12:47:28;101501.41;;;24.83;44.15
55187;BME280;55457;52.002;5.464;2022-07-29T12:50:12;101506.38;;;24.86;44.27
55187;BME280;55457;52.002;5.464;2022-07-29T12:52:39;101505.84;;;24.89;43.81
55187;BME280;55457;52.002;5.464;2022-07-29T12:55:05;101506.16;;;24.93;43.64
55187;BME280;55457;52.002;5.464;2022-07-29T12:57:31;101493.91;;;24.95;44.01
55187;BME280;55457;52.002;5.464;2022-07-29T13:00:08;101496.38;;;24.97;44.06
55187;BME280;55457;52.002;5.464;2022-07-29T13:02:36;101496.38;;;24.97;43.78
55187;BME280;55457;52.002;5.464;2022-07-29T13:05:02;101490.94;;;24.97;44.17
55187;BME280;55457;52.002;5.464;2022-07-29T13:07:30;101489.56;;;24.99;44.08
55187;BME280;55457;52.002;5.464;2022-07-29T13:10:17;101487.16;;;25.03;43.86
55187;BME280;55457;52.002;5.464;2022-07-29T13:15:28;101486.06;;;25.04;44.07
55187;BME280;55457;52.002;5.464;2022-07-29T13:17:53;101491.53;;;25.04;43.91
55187;BME280;55457;52.002;5.464;2022-07-29T13:20:24;101489.88;;;25.03;44.11
55187;BME280;55457;52.002;5.464;2022-07-29T13:22:49;101493.16;;;25.05;44.03
55187;BME280;55457;52.002;5.464;2022-07-29T13:25:23;101492.13;;;25.06;44.00
55187;BME280;55457;52.002;5.464;2022-07-29T13:27:49;101495.69;;;25.07;43.94
55187;BME280;55457;52.002;5.464;2022-07-29T13:30:15;101492.13;;;25.06;44.02
55187;BME280;55457;52.002;5.464;2022-07-29T13:32:40;101483.97;;;25.06;44.07
55187;BME280;55457;52.002;5.464;2022-07-29T13:35:07;101493.97;;;25.06;44.20
55187;BME280;55457;52.002;5.464;2022-07-29T13:37:34;101484.16;;;25.05;44.08
55187;BME280;55457;52.002;5.464;2022-07-29T13:40:03;101496.97;;;25.04;43.83
55187;BME280;55457;52.002;5.464;2022-07-29T13:42:31;101496.97;;;25.04;44.02
55187;BME280;55457;52.002;5.464;2022-07-29T13:44:57;101489.88;;;25.03;44.11